Huvudsida
METAR-TAF:

METAR-TAF

Flygplatser :

Bad Vöslau, Österrike

latitud: 47-57-52N, longitud: 016-15-34E, höjd: 233 m

Aktuellt väderrapport

Denna rapport gjordes för 6 timmar och 24 minuter sedan, klockan 15:00 UTC
Vind 18 kt från väst i byarna ända upp till 28 kt
Temperatur 11°C
Fuktighet 50%
Tryck

METAR: LOAV 141500Z 28018G28KT 40KM SCT030CU 11/01

Tid: 22:24 (21:24 UTC)

Väderprognos

Denna rapport gjordes för 7 timmar och 12 minuter sedan, klockan 14:12 UTC
Prognos gäller från 14 kl. 14 UTC till 14 kl. 21 UTC
Vind 10 kt från väst
Sikt 10 km eller mer
Spridda moln på en höjd av 3000 ft
Temporärt
från 14 kl. 14 UTC till 14 kl. 20 UTC
Vind 20 kt från väst i byarna ända upp till 30 kt

TAF: LOAV 141412Z 1414/1421 28010KT 9999 SCT030 TEMPO 1414/1420 28020G30KT

Aktuella väderrapporter och prognoser från 4000 flygplatser (METAR- och TAF-rapporter).

De tillgängliga stationerna syns som gula och röda prickar på kartan.

För musen över prickarna för att se namnen på stationerna.

Klicka sedan för att få väderrapporter och prognoser.

För att ändra kartan: Klicka på de gröna knapparna med ett svart kors på för att zooma in; den gröna knappen med ett streck på för att zooma ut; eller på de gröna pilarna för angränsande kartor.


METAR-TAF: